Time;durP1;ratioP1;P1;durP2;ratioP2;P2;SDS_P1;SDS_P2;PMS_P1;PMS_P2;Temp;Humidity;BMP_temperature;BMP_pressure;BME280_temperature;BME280_humidity;BME280_pressure;Samples;Min_cycle;Max_cycle;Signal;HPM_P1;HPM_P2
2022/05/23 00:00:58;;;;;;;0.80;0.60;;;17.50;54.50;19.50;93183.00;;;;10437633;28;45443;-63
2022/05/23 00:06:21;;;;;;;0.90;0.70;;;17.50;54.50;19.50;93189.00;;;;10436892;28;45272;-63
2022/05/23 00:11:43;;;;;;;1.10;0.80;;;17.50;54.50;19.50;93178.00;;;;10436665;28;45669;-64
2022/05/23 00:17:04;;;;;;;1.15;0.70;;;17.50;54.50;19.50;93168.00;;;;10436909;28;45880;-63
2022/05/23 00:22:25;;;;;;;2.03;0.80;;;17.50;54.50;19.50;93176.00;;;;10436677;28;45377;-63
2022/05/23 00:27:47;;;;;;;1.05;0.80;;;17.40;54.50;19.50;93162.00;;;;10436465;28;45157;-63
2022/05/23 00:38:46;;;;;;;0.60;0.60;;;17.40;54.40;19.50;93133.00;;;;10353300;28;45138;-64
2022/05/23 00:44:08;;;;;;;0.88;0.65;;;17.40;54.50;19.50;93145.00;;;;10324081;28;45853;-64
2022/05/23 00:49:31;;;;;;;1.10;0.80;;;17.40;54.50;19.50;93141.00;;;;10313089;28;45285;-64
2022/05/23 00:54:56;;;;;;;1.33;0.98;;;17.40;54.50;19.40;93121.00;;;;10312970;28;45242;-64
2022/05/23 01:00:19;;;;;;;0.73;0.50;;;17.40;54.50;19.40;93127.00;;;;10310116;28;45238;-64
2022/05/23 01:05:40;;;;;;;1.45;0.85;;;17.40;54.50;19.40;93130.00;;;;10309927;28;45299;-65
2022/05/23 01:11:03;;;;;;;0.73;0.70;;;17.40;54.50;19.40;93124.00;;;;10312520;28;45166;-64
2022/05/23 01:16:27;;;;;;;0.80;0.70;;;17.40;54.50;19.40;93129.00;;;;10312677;28;45253;-64
2022/05/23 01:22:00;;;;;;;1.48;0.68;;;17.40;54.50;19.40;93129.00;;;;10311910;28;45172;-64
2022/05/23 01:27:22;;;;;;;0.73;0.70;;;17.40;54.50;19.40;93122.00;;;;10312104;28;45806;-64
2022/05/23 01:32:43;;;;;;;0.52;0.52;;;17.40;54.50;19.40;93137.00;;;;10311758;28;45858;-64
2022/05/23 01:38:04;;;;;;;0.70;0.70;;;17.40;54.30;19.40;93135.00;;;;10311929;28;45935;-62
2022/05/23 01:43:27;;;;;;;0.95;0.65;;;17.40;54.60;19.40;93122.00;;;;10311731;28;45262;-62
2022/05/23 01:48:48;;;;;;;1.02;0.73;;;17.40;54.50;19.40;93132.00;;;;10312146;28;45865;-62
2022/05/23 01:54:08;;;;;;;0.75;0.68;;;17.40;54.40;19.40;93127.00;;;;10318619;28;45379;-62
2022/05/23 02:05:09;;;;;;;1.67;0.80;;;17.40;54.40;19.40;93126.00;;;;10318278;28;45107;-62
2022/05/23 02:10:30;;;;;;;0.60;0.60;;;17.40;54.40;19.40;93130.00;;;;10317962;28;45135;-62
2022/05/23 02:15:52;;;;;;;1.10;0.80;;;17.40;54.50;19.40;93121.00;;;;10317851;28;45210;-62
2022/05/23 02:21:13;;;;;;;1.10;0.80;;;17.40;54.50;19.40;93098.00;;;;10317810;28;45204;-62
2022/05/23 02:26:35;;;;;;;1.00;0.65;;;17.40;54.40;19.40;93087.00;;;;10317355;28;45256;-62
2022/05/23 02:31:57;;;;;;;1.02;0.70;;;17.40;54.50;19.40;93065.00;;;;10316582;28;45232;-62
2022/05/23 02:37:18;;;;;;;1.17;0.60;;;17.40;54.40;19.40;93095.00;;;;10317261;28;45821;-62
2022/05/23 02:42:38;;;;;;;1.10;0.80;;;17.40;54.50;19.40;93068.00;;;;10317181;28;45106;-62
2022/05/23 02:48:00;;;;;;;1.88;0.70;;;17.40;54.50;19.40;93052.00;;;;10316719;28;45822;-61
2022/05/23 02:53:21;;;;;;;0.88;0.60;;;17.40;54.60;19.40;93040.00;;;;10316604;28;45113;-61
2022/05/23 02:58:41;;;;;;;0.98;0.70;;;17.40;54.40;19.40;93025.00;;;;10315928;28;45790;-61
2022/05/23 03:04:03;;;;;;;1.88;0.60;;;17.30;54.40;19.40;93036.00;;;;10315453;28;45781;-62
2022/05/23 03:09:24;;;;;;;0.80;0.68;;;17.40;54.40;19.40;93082.00;;;;10315652;28;45682;-62
2022/05/23 03:14:45;;;;;;;0.80;0.80;;;17.40;54.70;19.40;93167.00;;;;10315662;28;45789;-62
2022/05/23 03:20:10;;;;;;;1.23;0.70;;;17.40;54.50;19.40;93162.00;;;;10315090;28;46369;-62
2022/05/23 03:31:10;;;;;;;1.17;0.73;;;17.40;54.40;19.40;93137.00;;;;10314116;28;45268;-62
2022/05/23 03:36:32;;;;;;;0.95;0.80;;;17.40;54.50;19.40;93127.00;;;;10314474;28;45686;-62
2022/05/23 03:41:53;;;;;;;1.58;0.80;;;17.40;54.40;19.40;93133.00;;;;10314453;28;45131;-62
2022/05/23 03:47:14;;;;;;;1.25;0.70;;;17.40;54.40;19.40;93120.00;;;;10314616;28;45243;-62
2022/05/23 03:52:36;;;;;;;0.90;0.52;;;17.40;54.50;19.40;93111.00;;;;10314379;28;45179;-62
2022/05/23 03:57:57;;;;;;;0.95;0.70;;;17.40;54.50;19.40;93113.00;;;;10314441;28;45187;-62
2022/05/23 04:03:19;;;;;;;1.02;0.70;;;17.40;54.80;19.40;93086.00;;;;10314138;28;45367;-62
2022/05/23 04:08:41;;;;;;;0.90;0.80;;;17.40;54.70;19.40;93080.00;;;;10313759;28;45354;-62
2022/05/23 04:14:01;;;;;;;1.10;0.73;;;17.30;54.70;19.40;93051.00;;;;10311924;28;45667;-61
2022/05/23 04:19:23;;;;;;;0.80;0.68;;;17.40;54.50;19.40;93050.00;;;;10313269;28;45118;-61
2022/05/23 04:24:45;;;;;;;1.75;0.70;;;17.40;54.40;19.40;93024.00;;;;10313473;28;45983;-62
2022/05/23 04:30:10;;;;;;;0.82;0.70;;;17.40;54.50;19.40;93015.00;;;;10312219;28;45796;-60
2022/05/23 04:35:31;;;;;;;1.65;0.88;;;17.30;54.60;19.40;93029.00;;;;10312361;28;45205;-61
2022/05/23 04:40:53;;;;;;;1.33;0.85;;;17.30;54.70;19.40;93032.00;;;;10312717;28;45203;-61
2022/05/23 04:46:13;;;;;;;0.80;0.75;;;17.30;55.00;19.40;93039.00;;;;10312172;28;45491;-61
2022/05/23 04:51:34;;;;;;;1.58;0.70;;;17.30;55.10;19.40;93023.00;;;;10311894;28;45111;-61
2022/05/23 04:56:55;;;;;;;1.50;0.80;;;17.40;55.10;19.40;93042.00;;;;10312272;28;45758;-61
2022/05/23 05:02:16;;;;;;;2.40;0.90;;;17.40;55.00;19.40;93030.00;;;;10312273;28;45193;-61
2022/05/23 05:07:37;;;;;;;1.63;0.95;;;17.40;55.00;19.40;93032.00;;;;10312313;28;45861;-61
2022/05/23 05:12:59;;;;;;;1.23;1.05;;;17.40;55.20;19.40;93035.00;;;;10312200;28;45205;-61
2022/05/23 05:18:20;;;;;;;1.40;0.98;;;17.30;55.00;19.40;93033.00;;;;10311814;28;45178;-61
2022/05/23 05:23:40;;;;;;;1.33;1.08;;;17.30;55.20;19.40;93051.00;;;;10312064;28;45379;-61
2022/05/23 05:29:02;;;;;;;1.42;0.93;;;17.40;55.30;19.40;93031.00;;;;10318174;28;45187;-60
2022/05/23 05:34:27;;;;;;;1.73;1.10;;;17.40;55.40;19.40;93017.00;;;;10318485;28;45183;-61
2022/05/23 05:39:50;;;;;;;2.08;1.00;;;17.40;55.40;19.40;93024.00;;;;10320340;28;45213;-61
2022/05/23 05:45:17;;;;;;;1.92;1.10;;;17.40;55.30;19.40;93016.00;;;;10325773;28;45285;-61
2022/05/23 05:50:42;;;;;;;1.85;0.85;;;17.30;55.20;19.40;93030.00;;;;10332165;28;45703;-61
2022/05/23 05:56:05;;;;;;;1.40;0.90;;;17.40;55.40;19.40;93029.00;;;;10318146;28;45116;-61
2022/05/23 06:01:27;;;;;;;2.08;0.82;;;17.30;55.40;19.40;93032.00;;;;10317906;28;45207;-61
2022/05/23 06:12:26;;;;;;;1.88;0.90;;;17.30;55.60;19.40;93046.00;;;;10317163;28;46002;-61
2022/05/23 06:17:48;;;;;;;1.10;0.80;;;17.40;55.60;19.40;93031.00;;;;10316556;28;45167;-60
2022/05/23 06:23:08;;;;;;;1.65;0.90;;;17.40;55.70;19.40;93032.00;;;;10324307;28;45252;-61
2022/05/23 06:28:29;;;;;;;1.40;0.95;;;17.40;55.40;19.40;93032.00;;;;10317550;28;45290;-61
2022/05/23 06:33:51;;;;;;;1.00;0.82;;;17.40;55.50;19.40;93024.00;;;;10315785;28;45207;-62
2022/05/23 06:39:11;;;;;;;1.38;1.10;;;17.40;55.50;19.40;93006.00;;;;10313331;28;45218;-62
2022/05/23 06:44:32;;;;;;;1.08;0.95;;;17.40;55.60;19.40;93024.00;;;;10317931;28;45698;-62
2022/05/23 06:49:55;;;;;;;1.55;1.00;;;17.30;55.50;19.40;93020.00;;;;10315584;28;45888;-62
2022/05/23 06:55:16;;;;;;;1.20;0.88;;;17.40;55.60;19.40;93007.00;;;;10316804;28;45225;-62
2022/05/23 07:00:37;;;;;;;1.50;0.90;;;17.40;55.30;19.40;93009.00;;;;10316634;28;45105;-62
2022/05/23 07:17:17;;;;;;;1.52;0.85;;;17.50;54.70;19.60;92981.00;;;;10315315;28;45303;-62
2022/05/23 07:22:39;;;;;;;1.30;0.95;;;17.50;55.00;19.70;92978.00;;;;10314539;28;45179;-59
2022/05/23 07:27:59;;;;;;;2.65;1.10;;;17.60;54.90;19.70;92979.00;;;;10313823;28;45297;-59
2022/05/23 07:33:20;;;;;;;2.45;0.90;;;17.60;54.90;19.70;92979.00;;;;10314224;28;45301;-58
2022/05/23 07:38:43;;;;;;;1.63;1.00;;;17.70;54.50;19.70;92970.00;;;;10313136;28;45170;-59
2022/05/23 07:44:06;;;;;;;1.33;0.90;;;17.60;54.90;19.80;92968.00;;;;10313964;28;45181;-60
2022/05/23 07:49:27;;;;;;;2.63;1.02;;;17.70;55.20;19.70;92959.00;;;;10314062;28;45177;-58
2022/05/23 08:00:32;;;;;;;1.95;1.10;;;17.60;56.00;19.60;92930.00;;;;10324463;28;45149;-60
2022/05/23 08:05:53;;;;;;;2.00;0.95;;;17.60;56.10;19.50;92918.00;;;;10323349;28;45741;-58
2022/05/23 08:11:17;;;;;;;3.08;1.20;;;17.50;55.10;19.50;92914.00;;;;10337032;28;45456;-59
2022/05/23 08:16:38;;;;;;;1.20;0.80;;;17.50;55.40;19.50;92895.00;;;;10329438;28;45126;-60
2022/05/23 08:22:00;;;;;;;3.97;1.10;;;17.50;55.20;19.60;92916.00;;;;10316333;28;45213;-60
2022/05/23 08:27:22;;;;;;;3.95;1.00;;;17.50;55.50;19.60;92907.00;;;;10328533;28;45166;-60
2022/05/23 08:32:43;;;;;;;3.28;1.20;;;17.50;54.80;19.50;92915.00;;;;10333202;28;45758;-60
2022/05/23 08:38:04;;;;;;;3.53;1.27;;;17.50;55.40;19.60;92911.00;;;;10329643;28;45273;-58
2022/05/23 08:43:31;;;;;;;1.40;0.77;;;17.50;55.30;19.60;92903.00;;;;10334099;28;45213;-59
2022/05/23 08:48:58;;;;;;;;;;;17.60;54.70;19.60;92884.00;;;;10325416;28;45232;-59
2022/05/23 08:54:25;;;;;;;2.40;1.10;;;17.60;55.10;19.70;92887.00;;;;10323927;28;45907;-60
2022/05/23 08:59:49;;;;;;;;;;;17.60;55.10;19.70;92901.00;;;;10310645;28;45289;-59
2022/05/23 09:05:16;;;;;;;1.80;0.98;;;17.70;55.10;19.70;92922.00;;;;10318496;28;45244;-59
2022/05/23 09:10:45;;;;;;;1.77;1.00;;;17.70;54.90;19.70;92947.00;;;;10319022;28;45758;-59
2022/05/23 09:16:12;;;;;;;2.20;0.90;;;17.70;55.30;19.80;92935.00;;;;10327720;28;45140;-60
2022/05/23 09:27:18;;;;;;;1.63;1.13;;;17.70;55.00;19.80;92942.00;;;;10317444;28;45778;-59
2022/05/23 09:32:55;;;;;;;2.28;1.08;;;17.80;55.20;19.80;92985.00;;;;10317059;28;45818;-59
2022/05/23 09:38:20;;;;;;;1.85;0.80;;;17.80;55.00;19.80;93069.00;;;;10317713;28;45264;-61
2022/05/23 09:49:30;;;;;;;4.07;1.10;;;17.80;55.60;19.90;93069.00;;;;10333114;28;45241;-58
2022/05/23 09:54:55;;;;;;;2.80;1.00;;;17.90;55.50;19.90;93037.00;;;;10334353;28;45418;-59
2022/05/23 10:00:34;;;;;;;2.45;0.90;;;17.90;55.70;19.90;92960.00;;;;10318492;28;45699;-57
2022/05/23 10:06:11;;;;;;;2.45;1.00;;;17.90;56.30;19.80;92921.00;;;;10316412;28;45181;-59
2022/05/23 10:11:36;;;;;;;4.05;1.20;;;17.80;56.30;19.90;92937.00;;;;10319697;28;45662;-57
2022/05/23 10:16:58;;;;;;;3.10;0.80;;;17.80;56.40;19.90;92931.00;;;;10333586;28;45890;-59
2022/05/23 10:22:24;;;;;;;2.58;1.17;;;17.80;55.30;19.80;92949.00;;;;10336941;28;45217;-60
2022/05/23 10:27:52;;;;;;;1.52;0.80;;;17.70;56.60;19.80;92946.00;;;;10357057;28;45229;-59
2022/05/23 10:33:14;;;;;;;2.78;1.00;;;17.70;56.90;19.70;92932.00;;;;10356587;28;45225;-59
2022/05/23 10:44:34;;;;;;;1.55;0.80;;;17.60;56.80;19.80;92948.00;;;;10342040;28;45146;-60
2022/05/23 10:50:08;;;;;;;2.58;0.90;;;17.70;56.00;19.90;92942.00;;;;10331393;28;45292;-59
2022/05/23 10:55:37;;;;;;;1.52;0.90;;;17.80;55.40;20.00;92948.00;;;;10343689;28;45294;-59
2022/05/23 11:01:10;;;;;;;1.33;0.70;;;17.90;55.20;20.00;92939.00;;;;10356320;28;45490;-60
2022/05/23 11:06:43;;;;;;;3.17;0.90;;;17.90;55.10;20.00;92918.00;;;;10339127;28;45233;-58
2022/05/23 11:12:19;;;;;;;3.75;0.98;;;17.90;55.70;20.00;92920.00;;;;10312516;28;45138;-59
2022/05/23 11:17:49;;;;;;;2.50;0.98;;;17.90;55.40;20.00;92915.00;;;;10326897;28;45485;-59
2022/05/23 11:23:22;;;;;;;1.30;0.70;;;17.90;55.40;20.00;92905.00;;;;10328413;28;45610;-60
2022/05/23 11:34:49;;;;;;;2.05;0.80;;;17.90;55.40;19.90;92909.00;;;;10314414;28;45786;-60
2022/05/23 11:40:14;;;;;;;1.42;0.80;;;17.90;56.00;19.90;92907.00;;;;10312773;28;45866;-60
2022/05/23 11:51:40;;;;;;;1.63;0.77;;;17.80;55.80;19.80;92901.00;;;;10307850;28;45818;-60
2022/05/23 11:57:30;;;;;;;2.58;0.80;;;17.80;56.30;19.80;92883.00;;;;10355559;28;45375;-60
2022/05/23 12:03:09;;;;;;;1.38;0.75;;;17.80;56.00;19.80;92861.00;;;;10354790;28;45257;-60
2022/05/23 12:08:33;;;;;;;1.67;0.75;;;17.70;56.10;19.80;92844.00;;;;10354717;28;45698;-60
2022/05/23 12:13:58;;;;;;;2.33;0.70;;;17.70;56.00;19.80;92856.00;;;;10354774;28;45355;-60
2022/05/23 12:19:32;;;;;;;2.72;0.73;;;17.70;55.80;19.80;92838.00;;;;10354756;28;45218;-60
2022/05/23 12:25:33;;;;;;;1.88;0.75;;;17.80;55.50;19.80;92824.00;;;;10351015;28;45335;-59
2022/05/23 12:31:15;;;;;;;2.40;0.80;;;17.80;55.70;19.80;92806.00;;;;10353164;28;45742;-60
2022/05/23 12:36:47;;;;;;;2.25;0.80;;;17.70;55.50;19.80;92815.00;;;;10375032;22;45412;-60
2022/05/23 12:42:23;;;;;;;2.03;0.80;;;17.80;55.70;19.80;92801.00;;;;10323188;28;45808;-59
2022/05/23 12:48:18;;;;;;;1.27;0.60;;;17.70;55.80;19.80;92758.00;;;;10310761;28;45849;-60
2022/05/23 12:53:52;;;;;;;3.72;0.70;;;17.80;55.80;19.80;92751.00;;;;10310167;28;45173;-59
2022/05/23 12:59:41;;;;;;;1.10;0.80;;;17.70;56.00;19.80;92775.00;;;;10303554;28;45137;-60
2022/05/23 13:05:08;;;;;;;1.23;0.70;;;17.80;56.00;19.80;92768.00;;;;10312308;28;45172;-60
2022/05/23 13:10:36;;;;;;;2.93;0.70;;;17.80;55.90;19.80;92766.00;;;;10312033;28;45210;-59
2022/05/23 13:15:57;;;;;;;1.25;0.70;;;17.80;56.20;19.80;92747.00;;;;10311435;28;45256;-60
2022/05/23 13:26:58;;;;;;;1.92;0.90;;;17.80;56.10;19.80;92759.00;;;;10285580;28;45794;-60
2022/05/23 13:32:19;;;;;;;;;;;17.80;56.30;19.80;92742.00;;;;10311139;28;45875;-60
2022/05/23 13:37:39;;;;;;;1.30;0.60;;;17.80;56.40;19.80;92735.00;;;;10311188;28;45310;-59
2022/05/23 13:43:12;;;;;;;1.77;0.82;;;17.70;56.30;19.80;92722.00;;;;10310904;28;45801;-60
2022/05/23 13:48:40;;;;;;;1.73;0.90;;;17.70;56.30;19.80;92728.00;;;;10316853;28;45198;-60
2022/05/23 13:54:06;;;;;;;1.50;0.80;;;17.70;57.60;19.70;92684.00;;;;10314506;28;45499;-60
2022/05/23 13:59:35;;;;;;;1.83;0.90;;;17.70;57.00;19.70;92691.00;;;;10316991;28;45782;-59
2022/05/23 14:04:56;;;;;;;1.27;0.80;;;17.70;56.80;19.70;92725.00;;;;10317307;28;45258;-60
2022/05/23 14:10:22;;;;;;;1.50;0.80;;;17.70;57.00;19.70;92733.00;;;;10314827;28;45866;-60
2022/05/23 14:15:52;;;;;;;1.70;0.80;;;17.70;56.60;19.70;92765.00;;;;10316833;28;45167;-59
2022/05/23 14:21:32;;;;;;;1.52;1.00;;;17.70;56.90;19.70;92758.00;;;;10317091;28;45168;-60
2022/05/23 14:27:17;;;;;;;1.48;0.85;;;17.60;57.00;19.70;92812.00;;;;10316543;28;45202;-59
2022/05/23 14:32:39;;;;;;;1.27;0.95;;;17.60;56.90;19.70;92823.00;;;;10315902;28;45260;-60
2022/05/23 14:38:00;;;;;;;2.83;0.70;;;17.70;56.70;19.70;92804.00;;;;10316293;28;45186;-60
2022/05/23 14:43:29;;;;;;;2.72;0.70;;;17.60;56.60;19.70;92772.00;;;;10312272;28;45160;-60
2022/05/23 14:48:59;;;;;;;2.08;0.90;;;17.60;56.60;19.70;92778.00;;;;10339837;28;45497;-59
2022/05/23 15:05:41;;;;;;;0.93;0.73;;;17.60;56.80;19.60;92772.00;;;;10314910;28;45737;-59
2022/05/23 15:11:02;;;;;;;2.05;0.80;;;17.60;56.60;19.60;92766.00;;;;10291932;28;45139;-60
2022/05/23 15:16:27;;;;;;;2.55;1.13;;;17.60;56.60;19.70;92784.00;;;;10323736;28;45256;-60
2022/05/23 15:21:49;;;;;;;1.75;0.90;;;17.60;56.70;19.70;92790.00;;;;10333340;28;45862;-60
2022/05/23 15:27:12;;;;;;;1.50;0.75;;;17.60;56.60;19.60;92775.00;;;;10312074;28;45364;-60
2022/05/23 15:32:35;;;;;;;3.40;0.80;;;17.60;56.40;19.60;92790.00;;;;10316048;28;46481;-59
2022/05/23 15:37:57;;;;;;;1.77;0.77;;;17.60;56.50;19.60;92785.00;;;;10332037;28;46242;-59
2022/05/23 15:43:19;;;;;;;1.08;0.70;;;17.60;56.50;19.70;92794.00;;;;10299004;28;45250;-59
2022/05/23 15:48:39;;;;;;;1.20;0.88;;;17.60;55.90;19.80;92806.00;;;;10313417;28;45686;-60
2022/05/23 15:54:01;;;;;;;1.60;0.80;;;17.70;55.80;19.90;92799.00;;;;10316804;28;45659;-60
2022/05/23 15:59:22;;;;;;;3.42;0.82;;;17.80;55.60;19.90;92810.00;;;;10335806;28;45187;-60
2022/05/23 16:04:42;;;;;;;2.83;0.90;;;17.80;55.30;19.90;92815.00;;;;10336225;28;45158;-60
2022/05/23 16:10:06;;;;;;;3.33;0.93;;;17.90;55.80;20.00;92814.00;;;;10312774;28;45166;-59
2022/05/23 16:15:28;;;;;;;2.30;0.70;;;17.90;55.20;20.00;92816.00;;;;10311558;28;45217;-59
2022/05/23 16:20:49;;;;;;;1.27;0.70;;;17.90;55.50;20.00;92828.00;;;;10313256;28;45777;-59
2022/05/23 16:26:11;;;;;;;3.58;0.85;;;17.90;55.70;20.00;92835.00;;;;10283134;28;45395;-59
2022/05/23 16:31:33;;;;;;;1.55;0.90;;;17.90;55.20;20.00;92836.00;;;;10312902;28;45352;-59
2022/05/23 16:36:54;;;;;;;2.28;0.70;;;18.00;55.90;20.00;92830.00;;;;10312557;28;45185;-60
2022/05/23 16:42:16;;;;;;;3.28;0.82;;;18.00;55.90;20.10;92822.00;;;;10321952;28;46095;-60
2022/05/23 16:47:38;;;;;;;2.60;0.95;;;18.00;56.50;20.10;92826.00;;;;10312594;28;45691;-60
2022/05/23 16:52:58;;;;;;;2.88;1.02;;;18.00;56.70;20.10;92837.00;;;;10317520;28;45460;-60
2022/05/23 16:58:20;;;;;;;2.47;0.90;;;18.00;57.50;20.10;92834.00;;;;10317241;28;45912;-59
2022/05/23 17:03:41;;;;;;;2.40;0.90;;;18.10;58.10;20.10;92840.00;;;;10314656;28;45162;-60
2022/05/23 17:09:02;;;;;;;2.45;0.80;;;18.10;57.70;20.20;92847.00;;;;10336351;28;45177;-60
2022/05/23 17:14:23;;;;;;;1.50;0.90;;;18.10;58.00;20.20;92849.00;;;;10330838;28;45210;-59
2022/05/23 17:19:44;;;;;;;3.17;0.80;;;18.10;58.20;20.20;92856.00;;;;10314356;28;45722;-60
2022/05/23 17:25:06;;;;;;;3.00;1.10;;;18.10;58.30;20.20;92877.00;;;;10324540;28;45871;-59
2022/05/23 17:30:28;;;;;;;1.33;0.60;;;18.20;58.10;20.30;92890.00;;;;10334561;28;45850;-59
2022/05/23 17:35:48;;;;;;;1.10;0.70;;;18.20;58.30;20.30;92872.00;;;;10317974;28;45227;-59
2022/05/23 17:41:11;;;;;;;4.78;0.82;;;18.20;58.20;20.20;92877.00;;;;10318105;28;45281;-60
2022/05/23 17:46:33;;;;;;;4.07;0.90;;;18.20;57.90;20.10;92887.00;;;;10315686;28;45088;-59
2022/05/23 17:51:53;;;;;;;0.95;0.70;;;18.10;58.00;20.10;92891.00;;;;10318453;28;45132;-59
2022/05/23 17:57:14;;;;;;;2.40;0.70;;;18.00;57.70;20.20;92895.00;;;;10315236;28;45885;-59
2022/05/23 18:02:36;;;;;;;1.08;0.60;;;18.10;57.40;20.20;92906.00;;;;10317356;28;45779;-60
2022/05/23 18:08:02;;;;;;;1.48;0.73;;;18.10;57.50;20.20;92904.00;;;;10317578;28;45163;-60
2022/05/23 18:13:23;;;;;;;1.63;0.60;;;18.10;57.60;20.20;92889.00;;;;10317886;28;45096;-60
2022/05/23 18:24:24;;;;;;;2.42;0.85;;;18.00;57.30;20.10;92910.00;;;;10317031;28;46030;-60
2022/05/23 18:29:45;;;;;;;1.90;0.80;;;18.00;57.30;20.10;92909.00;;;;10317258;28;45867;-61
2022/05/23 18:35:08;;;;;;;2.63;0.70;;;17.90;57.10;20.00;92903.00;;;;10316040;28;45108;-60
2022/05/23 18:40:29;;;;;;;2.15;0.60;;;17.90;56.90;20.00;92899.00;;;;10317216;28;45202;-61
2022/05/23 18:45:50;;;;;;;2.05;0.90;;;17.90;56.90;20.00;92916.00;;;;10316385;28;45203;-60
2022/05/23 18:51:11;;;;;;;2.60;0.80;;;17.90;56.80;20.00;92937.00;;;;10316928;28;45293;-60
2022/05/23 18:56:32;;;;;;;1.77;0.70;;;17.90;57.30;19.90;92937.00;;;;10315988;28;45162;-61
2022/05/23 19:01:53;;;;;;;1.45;0.70;;;17.90;56.60;19.90;92933.00;;;;10316396;28;45231;-60
2022/05/23 19:07:18;;;;;;;2.60;0.80;;;17.80;56.50;19.90;92937.00;;;;10314836;28;45242;-63
2022/05/23 19:12:39;;;;;;;1.83;0.70;;;17.80;56.50;19.90;92938.00;;;;10321284;28;45435;-60
2022/05/23 19:18:00;;;;;;;2.45;0.55;;;17.80;56.40;19.90;92932.00;;;;10345568;28;45774;-60
2022/05/23 19:23:24;;;;;;;1.13;0.57;;;17.80;56.40;19.90;92937.00;;;;10356441;28;45118;-60
2022/05/23 19:28:44;;;;;;;2.05;0.75;;;17.80;56.30;19.80;92950.00;;;;10342046;28;45226;-62
2022/05/23 19:34:05;;;;;;;1.77;0.70;;;17.80;56.30;19.80;92935.00;;;;10314878;28;45111;-61
2022/05/23 19:39:27;;;;;;;1.17;0.70;;;17.80;56.30;19.80;92959.00;;;;10314617;28;45130;-60
2022/05/23 19:44:48;;;;;;;2.20;0.55;;;17.70;56.20;19.80;92955.00;;;;10314497;28;45224;-60
2022/05/23 19:50:10;;;;;;;1.15;0.70;;;17.70;56.20;19.80;92951.00;;;;10314871;28;45931;-60
2022/05/23 19:55:32;;;;;;;1.83;0.70;;;17.70;56.20;19.80;92946.00;;;;10314003;28;45253;-61
2022/05/23 20:00:53;;;;;;;1.85;0.60;;;17.70;56.80;19.80;92947.00;;;;10336646;28;45213;-61
2022/05/23 20:11:53;;;;;;;1.42;0.60;;;17.70;56.10;19.80;92971.00;;;;10309422;28;45163;-62
2022/05/23 20:17:14;;;;;;;2.47;0.60;;;17.70;56.10;19.70;92981.00;;;;10312873;28;45783;-61
2022/05/23 20:22:34;;;;;;;1.00;0.60;;;17.70;56.00;19.70;92973.00;;;;10313334;28;45256;-61
2022/05/23 20:27:56;;;;;;;1.27;0.65;;;17.70;56.00;19.70;92975.00;;;;10312992;28;45804;-60
2022/05/23 20:33:18;;;;;;;1.23;0.70;;;17.60;55.90;19.70;92970.00;;;;10312195;28;46131;-61
2022/05/23 20:38:38;;;;;;;1.13;0.77;;;17.60;55.90;19.70;92972.00;;;;10312455;28;45186;-62
2022/05/23 20:44:00;;;;;;;1.83;0.50;;;17.60;55.90;19.70;92974.00;;;;10313427;28;45301;-61
2022/05/23 20:49:21;;;;;;;3.58;0.70;;;17.60;55.90;19.70;92979.00;;;;10313136;28;45190;-61
2022/05/23 20:54:42;;;;;;;2.20;0.80;;;17.60;55.80;19.70;92993.00;;;;10313175;28;45222;-61
2022/05/23 21:00:07;;;;;;;1.75;0.88;;;17.60;55.80;19.70;93012.00;;;;10320308;28;45842;-61
2022/05/23 21:05:30;;;;;;;1.70;0.55;;;17.60;55.80;19.70;93007.00;;;;10319818;28;45811;-62
2022/05/23 21:10:51;;;;;;;0.93;0.60;;;17.60;55.70;19.70;93005.00;;;;10320216;28;45364;-62
2022/05/23 21:16:12;;;;;;;1.45;0.60;;;17.60;55.70;19.60;92990.00;;;;10319457;28;45798;-61
2022/05/23 21:21:33;;;;;;;0.88;0.63;;;17.60;55.80;19.60;93006.00;;;;10319716;28;45347;-61
2022/05/23 21:26:54;;;;;;;0.52;0.50;;;17.60;55.70;19.60;93008.00;;;;10319111;28;45727;-62
2022/05/23 21:32:15;;;;;;;1.38;0.70;;;17.60;55.70;19.60;92984.00;;;;10319499;28;45303;-61
2022/05/23 21:37:38;;;;;;;1.20;0.70;;;17.60;55.70;19.60;93001.00;;;;10318821;28;45855;-62
2022/05/23 21:48:38;;;;;;;0.55;0.43;;;17.60;55.70;19.60;92977.00;;;;10318729;28;45803;-62
2022/05/23 21:53:59;;;;;;;3.33;0.60;;;17.60;55.80;19.60;92989.00;;;;10318768;28;45328;-62
2022/05/23 21:59:19;;;;;;;0.98;0.50;;;17.50;55.70;19.60;92995.00;;;;10318169;28;45694;-61
2022/05/23 22:04:41;;;;;;;1.35;0.55;;;17.50;55.80;19.60;93000.00;;;;10318065;28;45786;-61
2022/05/23 22:10:02;;;;;;;0.85;0.50;;;17.50;55.80;19.60;93014.00;;;;10317635;28;45227;-60
2022/05/23 22:15:22;;;;;;;0.40;0.40;;;17.50;55.80;19.60;93019.00;;;;10317816;28;45734;-60
2022/05/23 22:20:44;;;;;;;0.63;0.50;;;17.50;55.70;19.60;93010.00;;;;10318034;28;45153;-61
2022/05/23 22:26:05;;;;;;;1.00;0.40;;;17.50;55.80;19.60;93018.00;;;;10316591;28;45135;-60
2022/05/23 22:31:26;;;;;;;1.05;0.40;;;17.50;55.80;19.60;93004.00;;;;10317606;28;45109;-60
2022/05/23 22:36:48;;;;;;;2.00;0.57;;;17.50;55.80;19.50;92997.00;;;;10314830;28;45116;-61
2022/05/23 22:42:10;;;;;;;0.93;0.52;;;17.50;55.70;19.50;92983.00;;;;10314033;28;45263;-61
2022/05/23 22:47:30;;;;;;;0.40;0.30;;;17.50;55.70;19.50;92986.00;;;;10313699;28;45740;-60
2022/05/23 22:52:52;;;;;;;0.95;0.32;;;17.50;55.70;19.50;92989.00;;;;10313934;28;45723;-60
2022/05/23 22:58:13;;;;;;;1.00;0.47;;;17.50;55.70;19.50;92981.00;;;;10313160;28;45120;-61
2022/05/23 23:09:13;;;;;;;0.55;0.40;;;17.50;55.70;19.50;92990.00;;;;10313123;28;45944;-60
2022/05/23 23:14:34;;;;;;;0.38;0.30;;;17.50;55.60;19.50;92987.00;;;;10313237;28;45156;-63
2022/05/23 23:19:54;;;;;;;1.15;0.50;;;17.50;55.60;19.50;92989.00;;;;10311282;28;45240;-61
2022/05/23 23:25:17;;;;;;;0.80;0.43;;;17.50;55.60;19.50;92995.00;;;;10312202;28;45261;-61
2022/05/23 23:30:38;;;;;;;0.70;0.40;;;17.50;55.50;19.50;92999.00;;;;10312444;28;45166;-61
2022/05/23 23:41:38;;;;;;;0.40;0.40;;;17.40;55.40;19.50;92985.00;;;;10314423;28;45808;-61
2022/05/23 23:46:59;;;;;;;0.80;0.50;;;17.40;55.40;19.50;92978.00;;;;10314389;28;45751;-60
2022/05/23 23:52:19;;;;;;;0.65;0.40;;;17.40;55.40;19.50;92989.00;;;;10313721;28;45318;-61
2022/05/23 23:57:45;;;;;;;1.45;0.52;;;17.40;55.40;19.50;93000.00;;;;10313928;28;45743;-61
